Time;durP1;ratioP1;P1;durP2;ratioP2;P2;SDS_P1;SDS_P2;PMS_P1;PMS_P2;Temp;Humidity;BMP_temperature;BMP_pressure;BME280_temperature;BME280_humidity;BME280_pressure;Samples;Min_cycle;Max_cycle;Signal;HPM_P1;HPM_P2
2022/04/01 00:00:27;;;;;;;;;;;;;;;;;;1276517;23;921;-37
2022/04/01 00:00:57;;;;;;;;;;;;;;;;;;1275817;23;1300;-34
2022/04/01 00:01:27;;;;;;;;;;;;;;;;;;1276437;23;933;-36
2022/04/01 00:01:58;;;;;;;;;;;;;;;;;;1277115;23;1015;-36
2022/04/01 00:02:28;;;;;;;;;;;;;;;;;;1276260;23;953;-37
2022/04/01 00:02:58;;;;;;;;;;;;;;;;;;1276977;23;830;-36
2022/04/01 00:03:29;;;;;;;;;;;;;;;;;;1276645;23;1027;-35
2022/04/01 00:03:59;;;;;;;;;;;;;;;;;;1277088;23;881;-35
2022/04/01 00:04:30;;;;;;;;;;;;;;;;;;1276490;23;909;-37
2022/04/01 00:05:00;;;;;;;;;;;;;;;;;;1277057;23;786;-32
2022/04/01 00:05:33;;;;;;;;;;;;;;;;;;1276455;23;952;-36
2022/04/01 00:06:12;;;;;;;;;;;;;;;;;;1277190;23;778;-34
2022/04/01 00:06:42;;;;;;;;;;;;;;;;;;1276715;23;966;-37
2022/04/01 00:07:13;;;;;;;;;;;;;;;;;;1276625;23;869;-36
2022/04/01 00:07:46;;;;;;;;;;;;;;;;;;1270267;23;1087;-32
2022/04/01 00:08:16;;;;;;;;;;;;;;;;;;1270224;23;960;-36
2022/04/01 00:08:46;;;;;;;;;;;;;;;;;;1270968;23;1053;-35
2022/04/01 00:09:17;;;;;;;;;;;;;;;;;;1270975;23;762;-32
2022/04/01 00:09:47;;;;;;;;;;;;;;;;;;1276929;23;972;-37
2022/04/01 00:10:18;;;;;;;;;;;;;;;;;;1276072;23;957;-36
2022/04/01 00:10:49;;;;;;;;;;;;;;;;;;1277735;23;953;-36
2022/04/01 00:11:23;;;;;;;;;;;;;;;;;;1277003;23;823;-36
2022/04/01 00:11:54;;;;;;;;;;;;;;;;;;1277440;23;1081;-34
2022/04/01 00:12:24;;;;;;;;;;;;;;;;;;1276919;23;968;-34
2022/04/01 00:12:55;;;;;;;;;;;;;;;;;;1277471;23;1091;-35
2022/04/01 00:13:27;;;;;;;;;;;;;;;;;;1276873;23;794;-34
2022/04/01 00:13:57;;;;;;;;;;;;;;;;;;1277441;23;1686;-36
2022/04/01 00:14:30;;;;;;;;;;;;;;;;;;1277014;23;849;-36
2022/04/01 00:15:03;;;;;;;;;;;;;;;;;;1277405;23;1080;-35
2022/04/01 00:15:33;;;;;;;;;;;;;;;;;;1276842;23;1076;-36
2022/04/01 00:16:04;;;;;;;;;;;;;;;;;;1277314;23;968;-33
2022/04/01 00:16:34;;;;;;;;;;;;;;;;;;1276932;23;916;-36
2022/04/01 00:17:05;;;;;;;;;;;;;;;;;;1277003;23;846;-36
2022/04/01 00:17:35;;;;;;;;;;;;;;;;;;1276693;23;1259;-38
2022/04/01 00:18:09;;;;;;;;;;;;;;;;;;1277585;23;957;-35
2022/04/01 00:18:40;;;;;;;;;;;;;;;;;;1275917;23;1027;-36
2022/04/01 00:19:12;;;;;;;;;;;;;;;;;;1277553;23;828;-35
2022/04/01 00:19:43;;;;;;;;;;;;;;;;;;1276834;23;1052;-36
2022/04/01 00:20:19;;;;;;;;;;;;;;;;;;1277505;23;925;-35
2022/04/01 00:20:49;;;;;;;;;;;;;;;;;;1277236;23;893;-37
2022/04/01 00:21:20;;;;;;;;;;;;;;;;;;1275519;23;999;-35
2022/04/01 00:21:50;;;;;;;;;;;;;;;;;;1277134;23;1208;-36
2022/04/01 00:22:20;;;;;;;;;;;;;;;;;;1277335;23;762;-35
2022/04/01 00:22:52;;;;;;;;;;;;;;;;;;1277051;23;965;-36
2022/04/01 00:23:22;;;;;;;;;;;;;;;;;;1277255;23;830;-31
2022/04/01 00:23:52;;;;;;;;;;;;;;;;;;1270450;23;936;-37
2022/04/01 00:24:23;;;;;;;;;;;;;;;;;;1269994;23;1420;-37
2022/04/01 00:24:53;;;;;;;;;;;;;;;;;;1270606;23;1009;-35
2022/04/01 00:25:26;;;;;;;;;;;;;;;;;;1270525;23;936;-33
2022/04/01 00:26:00;;;;;;;;;;;;;;;;;;1270371;23;1901;-36
2022/04/01 00:26:30;;;;;;;;;;;;;;;;;;1270513;23;861;-33
2022/04/01 00:27:04;;;;;;;;;;;;;;;;;;1270520;23;885;-35
2022/04/01 00:27:34;;;;;;;;;;;;;;;;;;1271823;23;963;-36
2022/04/01 00:28:05;;;;;;;;;;;;;;;;;;1276589;23;1202;-35
2022/04/01 00:28:35;;;;;;;;;;;;;;;;;;1270458;23;656;-35
2022/04/01 00:29:14;;;;;;;;;;;;;;;;;;1270615;23;1239;-34
2022/04/01 00:29:48;;;;;;;;;;;;;;;;;;1270429;23;833;-38
2022/04/01 00:30:19;;;;;;;;;;;;;;;;;;1273526;23;770;-35
2022/04/01 00:30:49;;;;;;;;;;;;;;;;;;1270169;23;2150;-34
2022/04/01 00:31:20;;;;;;;;;;;;;;;;;;1270844;23;790;-32
2022/04/01 00:31:58;;;;;;;;;;;;;;;;;;1269970;23;1026;-36
2022/04/01 00:32:29;;;;;;;;;;;;;;;;;;1272662;23;774;-33
2022/04/01 00:32:59;;;;;;;;;;;;;;;;;;1277099;23;992;-34
2022/04/01 00:33:31;;;;;;;;;;;;;;;;;;1277254;23;917;-32
2022/04/01 00:34:16;;;;;;;;;;;;;;;;;;1276599;23;921;-34
2022/04/01 00:34:47;;;;;;;;;;;;;;;;;;1276556;23;912;-35
2022/04/01 00:35:18;;;;;;;;;;;;;;;;;;1270596;23;1211;-36
2022/04/01 00:35:49;;;;;;;;;;;;;;;;;;1270239;23;940;-35
2022/04/01 00:36:23;;;;;;;;;;;;;;;;;;1270581;23;1201;-33
2022/04/01 00:36:57;;;;;;;;;;;;;;;;;;1265554;23;1300;-36
2022/04/01 00:37:28;;;;;;;;;;;;;;;;;;1270683;23;749;-37
2022/04/01 00:37:58;;;;;;;;;;;;;;;;;;1270203;23;1461;-34
2022/04/01 00:38:28;;;;;;;;;;;;;;;;;;1264816;23;1463;-36
2022/04/01 00:38:59;;;;;;;;;;;;;;;;;;1270330;23;1184;-34
2022/04/01 00:39:30;;;;;;;;;;;;;;;;;;1270704;23;944;-33
2022/04/01 00:40:01;;;;;;;;;;;;;;;;;;1270257;23;946;-34
2022/04/01 00:40:32;;;;;;;;;;;;;;;;;;1276751;23;1732;-36
2022/04/01 00:41:03;;;;;;;;;;;;;;;;;;1270204;23;1101;-33
2022/04/01 00:41:34;;;;;;;;;;;;;;;;;;1270915;23;912;-34
2022/04/01 00:42:05;;;;;;;;;;;;;;;;;;1270485;23;867;-33
2022/04/01 00:42:35;;;;;;;;;;;;;;;;;;1270868;23;834;-34
2022/04/01 00:43:06;;;;;;;;;;;;;;;;;;1276509;23;1230;-35
2022/04/01 00:43:37;;;;;;;;;;;;;;;;;;1276937;23;774;-36
2022/04/01 00:44:10;;;;;;;;;;;;;;;;;;1270355;23;1149;-33
2022/04/01 00:44:41;;;;;;;;;;;;;;;;;;1270626;23;901;-36
2022/04/01 00:45:12;;;;;;;;;;;;;;;;;;1270183;23;1456;-35
2022/04/01 00:45:45;;;;;;;;;;;;;;;;;;1271227;23;1897;-35
2022/04/01 00:46:15;;;;;;;;;;;;;;;;;;1276865;23;1008;-33
2022/04/01 00:46:47;;;;;;;;;;;;;;;;;;1275570;23;778;-36
2022/04/01 00:47:18;;;;;;;;;;;;;;;;;;1270338;23;1210;-36
2022/04/01 00:47:48;;;;;;;;;;;;;;;;;;1264209;23;1317;-35
2022/04/01 00:48:22;;;;;;;;;;;;;;;;;;1264590;23;920;-34
2022/04/01 00:48:52;;;;;;;;;;;;;;;;;;1265350;23;1423;-33
2022/04/01 00:49:23;;;;;;;;;;;;;;;;;;1271185;23;1471;-36
2022/04/01 00:49:55;;;;;;;;;;;;;;;;;;1276728;23;978;-35
2022/04/01 00:50:25;;;;;;;;;;;;;;;;;;1276793;23;987;-35
2022/04/01 00:51:01;;;;;;;;;;;;;;;;;;1275134;23;865;-36
2022/04/01 00:51:32;;;;;;;;;;;;;;;;;;1271154;23;1319;-35
2022/04/01 00:52:09;;;;;;;;;;;;;;;;;;1270209;23;825;-36
2022/04/01 00:52:42;;;;;;;;;;;;;;;;;;1270855;23;813;-35
2022/04/01 00:53:12;;;;;;;;;;;;;;;;;;1270236;23;1020;-35
2022/04/01 00:53:43;;;;;;;;;;;;;;;;;;1270896;23;952;-34
2022/04/01 00:54:13;;;;;;;;;;;;;;;;;;1270405;23;823;-33
2022/04/01 00:54:44;;;;;;;;;;;;;;;;;;1271111;23;766;-31
2022/04/01 00:55:21;;;;;;;;;;;;;;;;;;1270851;23;966;-34
2022/04/01 00:55:52;;;;;;;;;;;;;;;;;;1276442;23;795;-36
2022/04/01 00:56:23;;;;;;;;;;;;;;;;;;1276715;23;964;-34
2022/04/01 00:56:54;;;;;;;;;;;;;;;;;;1276695;23;1202;-35
2022/04/01 00:57:25;;;;;;;;;;;;;;;;;;1276167;23;913;-33
2022/04/01 00:57:56;;;;;;;;;;;;;;;;;;1271023;23;853;-34
2022/04/01 00:58:26;;;;;;;;;;;;;;;;;;1276576;23;943;-32
2022/04/01 00:58:57;;;;;;;;;;;;;;;;;;1276750;23;826;-36
2022/04/01 00:59:28;;;;;;;;;;;;;;;;;;1276763;23;874;-36
2022/04/01 00:59:58;;;;;;;;;;;;;;;;;;1276507;23;806;-32
2022/04/01 01:00:29;;;;;;;;;;;;;;;;;;1276674;23;1227;-32
2022/04/01 01:01:05;;;;;;;;;;;;;;;;;;1276704;23;928;-35
2022/04/01 01:01:36;;;;;;;;;;;;;;;;;;1274425;23;1298;-38
2022/04/01 01:02:08;;;;;;;;;;;;;;;;;;1275212;23;1722;-35
2022/04/01 01:02:39;;;;;;;;;;;;;;;;;;1271016;23;944;-36
2022/04/01 01:03:10;;;;;;;;;;;;;;;;;;1270911;23;838;-31
2022/04/01 01:03:41;;;;;;;;;;;;;;;;;;1271109;23;948;-36
2022/04/01 01:04:14;;;;;;;;;;;;;;;;;;1270800;23;928;-34
2022/04/01 01:04:45;;;;;;;;;;;;;;;;;;1270749;23;1012;-36
2022/04/01 01:05:16;;;;;;;;;;;;;;;;;;1270156;23;1263;-33
2022/04/01 01:05:46;;;;;;;;;;;;;;;;;;1270403;23;1950;-34
2022/04/01 01:06:18;;;;;;;;;;;;;;;;;;1270672;23;798;-35
2022/04/01 01:06:50;;;;;;;;;;;;;;;;;;1276922;23;940;-36
2022/04/01 01:07:20;;;;;;;;;;;;;;;;;;1275695;23;878;-35
2022/04/01 01:07:51;;;;;;;;;;;;;;;;;;1276183;23;1196;-31
2022/04/01 01:08:21;;;;;;;;;;;;;;;;;;1276396;23;937;-33
2022/04/01 01:08:52;;;;;;;;;;;;;;;;;;1276567;23;1093;-34
2022/04/01 01:09:23;;;;;;;;;;;;;;;;;;1276229;23;866;-35
2022/04/01 01:09:57;;;;;;;;;;;;;;;;;;1270808;23;1277;-33
2022/04/01 01:10:27;;;;;;;;;;;;;;;;;;1270355;23;940;-34
2022/04/01 01:11:00;;;;;;;;;;;;;;;;;;1270774;23;1298;-36
2022/04/01 01:11:31;;;;;;;;;;;;;;;;;;1265379;23;1267;-36
2022/04/01 01:12:11;;;;;;;;;;;;;;;;;;1270758;23;884;-31
2022/04/01 01:12:46;;;;;;;;;;;;;;;;;;1270676;23;1025;-35
2022/04/01 01:13:17;;;;;;;;;;;;;;;;;;1276337;23;1341;-35
2022/04/01 01:13:47;;;;;;;;;;;;;;;;;;1276748;23;1033;-36
2022/04/01 01:14:26;;;;;;;;;;;;;;;;;;1269724;23;1418;-36
2022/04/01 01:15:05;;;;;;;;;;;;;;;;;;1270897;23;956;-34
2022/04/01 01:15:39;;;;;;;;;;;;;;;;;;1270455;23;1049;-35
2022/04/01 01:16:09;;;;;;;;;;;;;;;;;;1270212;23;956;-36
2022/04/01 01:16:41;;;;;;;;;;;;;;;;;;1270343;23;1253;-33
2022/04/01 01:17:12;;;;;;;;;;;;;;;;;;1270269;23;865;-31
2022/04/01 01:17:42;;;;;;;;;;;;;;;;;;1270468;23;862;-37
2022/04/01 01:18:16;;;;;;;;;;;;;;;;;;1264808;23;1238;-36
2022/04/01 01:19:03;;;;;;;;;;;;;;;;;;1270263;23;910;-33
2022/04/01 01:19:34;;;;;;;;;;;;;;;;;;1270293;23;922;-33
2022/04/01 01:20:12;;;;;;;;;;;;;;;;;;1274878;23;842;-37
2022/04/01 01:20:43;;;;;;;;;;;;;;;;;;1270360;23;1254;-36
2022/04/01 01:21:14;;;;;;;;;;;;;;;;;;1270413;23;928;-35
2022/04/01 01:21:45;;;;;;;;;;;;;;;;;;1270445;23;1197;-36
2022/04/01 01:22:16;;;;;;;;;;;;;;;;;;1270685;23;782;-35
2022/04/01 01:22:47;;;;;;;;;;;;;;;;;;1270194;23;1503;-37
2022/04/01 01:23:17;;;;;;;;;;;;;;;;;;1264212;23;1127;-36
2022/04/01 01:23:48;;;;;;;;;;;;;;;;;;1263746;23;846;-33
2022/04/01 01:24:35;;;;;;;;;;;;;;;;;;1264798;23;755;-33
2022/04/01 01:25:07;;;;;;;;;;;;;;;;;;1274117;23;1235;-37
2022/04/01 01:25:38;;;;;;;;;;;;;;;;;;1270121;23;1955;-35
2022/04/01 01:26:09;;;;;;;;;;;;;;;;;;1270713;23;775;-36
2022/04/01 01:26:39;;;;;;;;;;;;;;;;;;1270328;23;893;-34
2022/04/01 01:27:10;;;;;;;;;;;;;;;;;;1270467;23;779;-36
2022/04/01 01:27:42;;;;;;;;;;;;;;;;;;1270704;23;1001;-36
2022/04/01 01:28:12;;;;;;;;;;;;;;;;;;1271128;23;957;-36
2022/04/01 01:28:43;;;;;;;;;;;;;;;;;;1276423;23;1104;-36
2022/04/01 01:29:14;;;;;;;;;;;;;;;;;;1270322;23;1215;-34
2022/04/01 01:29:46;;;;;;;;;;;;;;;;;;1270514;23;1014;-33
2022/04/01 01:30:17;;;;;;;;;;;;;;;;;;1270817;23;949;-36
2022/04/01 01:30:48;;;;;;;;;;;;;;;;;;1270151;23;875;-35
2022/04/01 01:31:20;;;;;;;;;;;;;;;;;;1270900;23;853;-31
2022/04/01 01:31:57;;;;;;;;;;;;;;;;;;1270863;23;953;-32
2022/04/01 01:32:32;;;;;;;;;;;;;;;;;;1270877;23;921;-36
2022/04/01 01:33:04;;;;;;;;;;;;;;;;;;1270916;23;925;-36
2022/04/01 01:33:34;;;;;;;;;;;;;;;;;;1270851;23;881;-35
2022/04/01 01:34:05;;;;;;;;;;;;;;;;;;1271098;23;959;-36
2022/04/01 01:34:35;;;;;;;;;;;;;;;;;;1270780;23;818;-34
2022/04/01 01:35:12;;;;;;;;;;;;;;;;;;1270535;23;1349;-34
2022/04/01 01:35:45;;;;;;;;;;;;;;;;;;1270276;23;793;-34
2022/04/01 01:36:16;;;;;;;;;;;;;;;;;;1270772;23;774;-33
2022/04/01 01:36:47;;;;;;;;;;;;;;;;;;1271749;23;1148;-36
2022/04/01 01:37:17;;;;;;;;;;;;;;;;;;1276458;23;1080;-36
2022/04/01 01:37:48;;;;;;;;;;;;;;;;;;1276446;23;970;-34
2022/04/01 01:38:19;;;;;;;;;;;;;;;;;;1270221;23;1329;-36
2022/04/01 01:38:52;;;;;;;;;;;;;;;;;;1264037;23;1191;-35
2022/04/01 01:39:23;;;;;;;;;;;;;;;;;;1264591;23;1396;-35
2022/04/01 01:39:55;;;;;;;;;;;;;;;;;;1263966;23;1255;-35
2022/04/01 01:40:28;;;;;;;;;;;;;;;;;;1265414;23;1447;-31
2022/04/01 01:40:58;;;;;;;;;;;;;;;;;;1270231;23;882;-36
2022/04/01 01:41:29;;;;;;;;;;;;;;;;;;1271450;23;866;-36
2022/04/01 01:42:02;;;;;;;;;;;;;;;;;;1270308;23;2249;-34
2022/04/01 01:42:33;;;;;;;;;;;;;;;;;;1270516;23;758;-35
2022/04/01 01:43:10;;;;;;;;;;;;;;;;;;1270558;23;844;-36
2022/04/01 01:43:41;;;;;;;;;;;;;;;;;;1270403;23;912;-33
2022/04/01 01:44:12;;;;;;;;;;;;;;;;;;1276574;23;1490;-34
2022/04/01 01:44:44;;;;;;;;;;;;;;;;;;1276562;23;810;-32
2022/04/01 01:45:15;;;;;;;;;;;;;;;;;;1276571;23;976;-35
2022/04/01 01:45:47;;;;;;;;;;;;;;;;;;1269728;23;1905;-36
2022/04/01 01:46:18;;;;;;;;;;;;;;;;;;1270570;23;981;-29
2022/04/01 01:46:49;;;;;;;;;;;;;;;;;;1270373;23;818;-35
2022/04/01 01:47:19;;;;;;;;;;;;;;;;;;1270789;23;2156;-33
2022/04/01 01:47:49;;;;;;;;;;;;;;;;;;1276234;23;908;-34
2022/04/01 01:48:22;;;;;;;;;;;;;;;;;;1276800;23;1095;-35
2022/04/01 01:48:56;;;;;;;;;;;;;;;;;;1276037;23;817;-33
2022/04/01 01:49:26;;;;;;;;;;;;;;;;;;1270636;23;1561;-36
2022/04/01 01:54:58;;;;;;;;;;;;;;;;;;1270291;23;1338;-34
2022/04/01 01:55:30;;;;;;;;;;;;;;;;;;1270465;23;1120;-36
2022/04/01 01:56:04;;;;;;;;;;;;;;;;;;1275035;23;1062;-36
2022/04/01 01:56:35;;;;;;;;;;;;;;;;;;1269515;23;1599;-33
2022/04/01 01:57:07;;;;;;;;;;;;;;;;;;1263690;23;1314;-34
2022/04/01 01:57:39;;;;;;;;;;;;;;;;;;1264650;23;1340;-35
2022/04/01 01:58:09;;;;;;;;;;;;;;;;;;1264568;23;1565;-34
2022/04/01 01:58:41;;;;;;;;;;;;;;;;;;1264987;23;1802;-36
2022/04/01 01:59:12;;;;;;;;;;;;;;;;;;1264108;23;1107;-37
2022/04/01 01:59:44;;;;;;;;;;;;;;;;;;1264444;23;846;-34
2022/04/01 02:00:18;;;;;;;;;;;;;;;;;;1264322;23;1183;-35
2022/04/01 02:00:49;;;;;;;;;;;;;;;;;;1269933;23;1235;-35
2022/04/01 02:01:20;;;;;;;;;;;;;;;;;;1270357;23;945;-32
2022/04/01 02:01:53;;;;;;;;;;;;;;;;;;1270403;23;782;-33
2022/04/01 02:02:24;;;;;;;;;;;;;;;;;;1270337;23;1095;-33
2022/04/01 02:02:55;;;;;;;;;;;;;;;;;;1270739;23;1032;-35
2022/04/01 02:03:26;;;;;;;;;;;;;;;;;;1270789;23;908;-33
2022/04/01 02:04:01;;;;;;;;;;;;;;;;;;1270287;23;810;-36
2022/04/01 02:04:32;;;;;;;;;;;;;;;;;;1270439;23;945;-36
2022/04/01 02:05:06;;;;;;;;;;;;;;;;;;1270086;23;1143;-31
2022/04/01 02:05:36;;;;;;;;;;;;;;;;;;1272554;23;1905;-31
2022/04/01 02:06:07;;;;;;;;;;;;;;;;;;1276274;23;782;-33
2022/04/01 02:06:38;;;;;;;;;;;;;;;;;;1275806;23;2395;-33
2022/04/01 02:07:09;;;;;;;;;;;;;;;;;;1263977;23;1231;-36
2022/04/01 02:07:40;;;;;;;;;;;;;;;;;;1264645;23;828;-35
2022/04/01 02:08:10;;;;;;;;;;;;;;;;;;1264032;23;766;-35
2022/04/01 02:08:40;;;;;;;;;;;;;;;;;;1270787;23;933;-35
2022/04/01 02:09:12;;;;;;;;;;;;;;;;;;1270397;23;949;-35
2022/04/01 02:09:46;;;;;;;;;;;;;;;;;;1271340;23;757;-34
2022/04/01 02:10:19;;;;;;;;;;;;;;;;;;1276151;23;1306;-34
2022/04/01 02:10:50;;;;;;;;;;;;;;;;;;1276802;23;975;-32
2022/04/01 02:11:24;;;;;;;;;;;;;;;;;;1276077;23;878;-35
2022/04/01 02:11:55;;;;;;;;;;;;;;;;;;1270442;23;1235;-35
2022/04/01 02:12:30;;;;;;;;;;;;;;;;;;1270335;23;862;-35
2022/04/01 02:13:00;;;;;;;;;;;;;;;;;;1270409;23;857;-35
2022/04/01 02:13:31;;;;;;;;;;;;;;;;;;1270402;23;1032;-34
2022/04/01 02:14:02;;;;;;;;;;;;;;;;;;1270949;23;908;-35
2022/04/01 02:14:34;;;;;;;;;;;;;;;;;;1270644;23;963;-35
2022/04/01 02:15:06;;;;;;;;;;;;;;;;;;1276297;23;1171;-35
2022/04/01 02:15:36;;;;;;;;;;;;;;;;;;1270023;23;909;-33
2022/04/01 02:16:08;;;;;;;;;;;;;;;;;;1264191;23;1298;-34
2022/04/01 02:16:39;;;;;;;;;;;;;;;;;;1264529;23;1038;-36
2022/04/01 02:17:12;;;;;;;;;;;;;;;;;;1264358;23;754;-35
2022/04/01 02:17:46;;;;;;;;;;;;;;;;;;1270580;23;1253;-34
2022/04/01 02:18:18;;;;;;;;;;;;;;;;;;1270153;23;2389;-32
2022/04/01 02:18:50;;;;;;;;;;;;;;;;;;1264606;23;1215;-34
2022/04/01 02:19:21;;;;;;;;;;;;;;;;;;1258511;23;1227;-31
2022/04/01 02:19:54;;;;;;;;;;;;;;;;;;1264525;23;1124;-36
2022/04/01 02:20:31;;;;;;;;;;;;;;;;;;1265016;23;1314;-34
2022/04/01 02:21:11;;;;;;;;;;;;;;;;;;1270163;23;1254;-35
2022/04/01 02:21:42;;;;;;;;;;;;;;;;;;1273748;23;1220;-35
2022/04/01 02:22:12;;;;;;;;;;;;;;;;;;1276362;23;901;-34
2022/04/01 02:22:44;;;;;;;;;;;;;;;;;;1270172;23;1425;-35
2022/04/01 02:23:14;;;;;;;;;;;;;;;;;;1264085;23;2088;-36
2022/04/01 02:23:46;;;;;;;;;;;;;;;;;;1270209;23;1029;-36
2022/04/01 02:24:19;;;;;;;;;;;;;;;;;;1270913;23;1034;-30
2022/04/01 02:24:53;;;;;;;;;;;;;;;;;;1269311;23;1298;-35
2022/04/01 02:25:25;;;;;;;;;;;;;;;;;;1263899;23;1229;-34
2022/04/01 02:25:56;;;;;;;;;;;;;;;;;;1264378;23;1901;-37
2022/04/01 02:26:31;;;;;;;;;;;;;;;;;;1263833;23;1172;-37
2022/04/01 02:27:02;;;;;;;;;;;;;;;;;;1264398;23;1235;-35
2022/04/01 02:27:32;;;;;;;;;;;;;;;;;;1258882;23;1220;-35
2022/04/01 02:28:04;;;;;;;;;;;;;;;;;;1264565;23;822;-33
2022/04/01 02:28:38;;;;;;;;;;;;;;;;;;1264419;23;1152;-34
2022/04/01 02:29:10;;;;;;;;;;;;;;;;;;1270289;23;1393;-36
2022/04/01 02:29:57;;;;;;;;;;;;;;;;;;1270520;23;1174;-32
2022/04/01 02:30:53;;;;;;;;;;;;;;;;;;1272880;23;965;-36
2022/04/01 02:31:45;;;;;;;;;;;;;;;;;;1273791;23;890;-34
2022/04/01 02:32:45;;;;;;;;;;;;;;;;;;1257912;23;1081;-35
2022/04/01 02:33:33;;;;;;;;;;;;;;;;;;1276049;23;1266;-36
2022/04/01 02:34:05;;;;;;;;;;;;;;;;;;1276871;23;828;-36
2022/04/01 02:34:35;;;;;;;;;;;;;;;;;;1276242;23;857;-35
2022/04/01 02:35:07;;;;;;;;;;;;;;;;;;1270421;23;1032;-33
2022/04/01 02:35:42;;;;;;;;;;;;;;;;;;1270327;23;986;-34
2022/04/01 02:36:13;;;;;;;;;;;;;;;;;;1270009;23;1236;-36
2022/04/01 02:36:44;;;;;;;;;;;;;;;;;;1271958;23;1343;-32
2022/04/01 02:37:17;;;;;;;;;;;;;;;;;;1270204;23;1268;-35
2022/04/01 02:37:48;;;;;;;;;;;;;;;;;;1269640;23;1161;-36
2022/04/01 02:38:19;;;;;;;;;;;;;;;;;;1264194;23;1159;-33
2022/04/01 02:38:50;;;;;;;;;;;;;;;;;;1264710;23;992;-33
2022/04/01 02:39:22;;;;;;;;;;;;;;;;;;1270380;23;1291;-33
2022/04/01 02:39:53;;;;;;;;;;;;;;;;;;1264953;23;942;-37
2022/04/01 02:40:27;;;;;;;;;;;;;;;;;;1269927;23;1357;-35
2022/04/01 02:40:58;;;;;;;;;;;;;;;;;;1264573;23;1238;-35
2022/04/01 02:41:33;;;;;;;;;;;;;;;;;;1263544;23;1383;-35
2022/04/01 02:42:06;;;;;;;;;;;;;;;;;;1265711;23;821;-35
2022/04/01 02:42:37;;;;;;;;;;;;;;;;;;1271865;23;976;-36
2022/04/01 02:43:08;;;;;;;;;;;;;;;;;;1270397;23;1191;-30
2022/04/01 02:43:44;;;;;;;;;;;;;;;;;;1269896;23;1538;-32
2022/04/01 02:44:15;;;;;;;;;;;;;;;;;;1270583;23;854;-35
2022/04/01 02:44:45;;;;;;;;;;;;;;;;;;1265214;23;1301;-32
2022/04/01 02:45:16;;;;;;;;;;;;;;;;;;1276297;23;1267;-37
2022/04/01 02:45:48;;;;;;;;;;;;;;;;;;1275981;23;1956;-36
2022/04/01 02:46:18;;;;;;;;;;;;;;;;;;1270565;23;1237;-36
2022/04/01 02:46:54;;;;;;;;;;;;;;;;;;1268625;23;1304;-34
2022/04/01 02:47:28;;;;;;;;;;;;;;;;;;1257916;23;1444;-33
2022/04/01 02:47:58;;;;;;;;;;;;;;;;;;1259942;23;1413;-31
2022/04/01 02:48:36;;;;;;;;;;;;;;;;;;1270038;23;1226;-35
2022/04/01 02:49:35;;;;;;;;;;;;;;;;;;1270141;23;1443;-36
2022/04/01 02:50:08;;;;;;;;;;;;;;;;;;1268982;23;901;-34
2022/04/01 02:50:39;;;;;;;;;;;;;;;;;;1270198;23;854;-34
2022/04/01 02:51:16;;;;;;;;;;;;;;;;;;1270417;23;916;-34
2022/04/01 02:51:47;;;;;;;;;;;;;;;;;;1270632;23;845;-33
2022/04/01 02:52:22;;;;;;;;;;;;;;;;;;1276335;23;1243;-35
2022/04/01 02:52:53;;;;;;;;;;;;;;;;;;1276036;23;1992;-34
2022/04/01 02:53:23;;;;;;;;;;;;;;;;;;1276714;23;1007;-35
2022/04/01 02:53:53;;;;;;;;;;;;;;;;;;1269997;23;1710;-35
2022/04/01 02:54:24;;;;;;;;;;;;;;;;;;1264394;23;1163;-34
2022/04/01 02:54:59;;;;;;;;;;;;;;;;;;1264047;23;1649;-36
2022/04/01 02:55:29;;;;;;;;;;;;;;;;;;1265160;23;814;-34
2022/04/01 02:56:01;;;;;;;;;;;;;;;;;;1264991;23;1244;-33
2022/04/01 02:56:32;;;;;;;;;;;;;;;;;;1270250;23;774;-36
2022/04/01 02:57:02;;;;;;;;;;;;;;;;;;1269938;23;1294;-34
2022/04/01 02:57:33;;;;;;;;;;;;;;;;;;1270686;23;1267;-33
2022/04/01 02:58:05;;;;;;;;;;;;;;;;;;1269974;23;1433;-34
2022/04/01 02:58:36;;;;;;;;;;;;;;;;;;1264292;23;1275;-35
2022/04/01 02:59:08;;;;;;;;;;;;;;;;;;1258034;23;1270;-36
2022/04/01 02:59:39;;;;;;;;;;;;;;;;;;1258303;23;974;-36
2022/04/01 03:00:21;;;;;;;;;;;;;;;;;;1258919;23;1136;-34
2022/04/01 03:00:57;;;;;;;;;;;;;;;;;;1267890;23;1398;-33
2022/04/01 03:01:28;;;;;;;;;;;;;;;;;;1264333;23;1136;-35
2022/04/01 03:01:58;;;;;;;;;;;;;;;;;;1266561;23;961;-35
2022/04/01 03:02:31;;;;;;;;;;;;;;;;;;1270383;23;1140;-33
2022/04/01 03:03:06;;;;;;;;;;;;;;;;;;1270858;23;997;-33
2022/04/01 03:03:37;;;;;;;;;;;;;;;;;;1270137;23;1243;-34
2022/04/01 03:04:11;;;;;;;;;;;;;;;;;;1264162;23;1205;-36
2022/04/01 03:04:50;;;;;;;;;;;;;;;;;;1263889;23;1343;-33
2022/04/01 03:05:21;;;;;;;;;;;;;;;;;;1267167;23;1196;-33
2022/04/01 03:05:52;;;;;;;;;;;;;;;;;;1273835;23;1897;-33
2022/04/01 03:06:24;;;;;;;;;;;;;;;;;;1276601;23;2452;-32
2022/04/01 03:06:54;;;;;;;;;;;;;;;;;;1276380;23;857;-36
2022/04/01 03:07:25;;;;;;;;;;;;;;;;;;1275528;23;1314;-35
2022/04/01 03:07:55;;;;;;;;;;;;;;;;;;1276327;23;1211;-32
2022/04/01 03:08:26;;;;;;;;;;;;;;;;;;1276513;23;1029;-35
2022/04/01 03:08:58;;;;;;;;;;;;;;;;;;1276338;23;771;-36
2022/04/01 03:09:29;;;;;;;;;;;;;;;;;;1276519;23;1374;-36
2022/04/01 03:10:05;;;;;;;;;;;;;;;;;;1269872;23;1414;-32
2022/04/01 03:10:37;;;;;;;;;;;;;;;;;;1264399;23;1438;-33
2022/04/01 03:11:09;;;;;;;;;;;;;;;;;;1269999;23;1136;-36
2022/04/01 03:11:41;;;;;;;;;;;;;;;;;;1271269;23;1468;-34
2022/04/01 03:12:19;;;;;;;;;;;;;;;;;;1276606;23;1292;-36
2022/04/01 03:12:52;;;;;;;;;;;;;;;;;;1276380;23;793;-36
2022/04/01 03:13:43;;;;;;;;;;;;;;;;;;1276101;23;1120;-35
2022/04/01 03:14:39;;;;;;;;;;;;;;;;;;1270456;23;1039;-36
2022/04/01 03:15:29;;;;;;;;;;;;;;;;;;1270968;23;1004;-35
2022/04/01 03:16:19;;;;;;;;;;;;;;;;;;1271062;23;1209;-35
2022/04/01 03:16:55;;;;;;;;;;;;;;;;;;1270102;23;1341;-35
2022/04/01 03:17:26;;;;;;;;;;;;;;;;;;1270210;23;1478;-31
2022/04/01 03:17:57;;;;;;;;;;;;;;;;;;1269738;23;1140;-35
2022/04/01 03:18:41;;;;;;;;;;;;;;;;;;1273655;23;2043;-34
2022/04/01 03:19:13;;;;;;;;;;;;;;;;;;1273309;23;1252;-35
2022/04/01 03:19:44;;;;;;;;;;;;;;;;;;1264316;23;1280;-33
2022/04/01 03:20:15;;;;;;;;;;;;;;;;;;1264075;23;871;-33
2022/04/01 03:20:47;;;;;;;;;;;;;;;;;;1265230;23;1434;-34
2022/04/01 03:21:18;;;;;;;;;;;;;;;;;;1264543;23;958;-32
2022/04/01 03:21:49;;;;;;;;;;;;;;;;;;1270147;23;1256;-34
2022/04/01 03:22:20;;;;;;;;;;;;;;;;;;1269730;23;1230;-35
2022/04/01 03:22:54;;;;;;;;;;;;;;;;;;1264367;23;1214;-35
2022/04/01 03:23:31;;;;;;;;;;;;;;;;;;1264167;23;1616;-36
2022/04/01 03:24:02;;;;;;;;;;;;;;;;;;1264226;23;838;-34
2022/04/01 03:24:32;;;;;;;;;;;;;;;;;;1266354;23;1121;-34
2022/04/01 03:25:05;;;;;;;;;;;;;;;;;;1264104;23;1132;-32
2022/04/01 03:25:42;;;;;;;;;;;;;;;;;;1264258;23;1964;-36
2022/04/01 03:26:23;;;;;;;;;;;;;;;;;;1263885;23;1624;-36
2022/04/01 03:27:08;;;;;;;;;;;;;;;;;;1269932;23;1054;-33
2022/04/01 03:27:39;;;;;;;;;;;;;;;;;;1270044;23;1247;-32
2022/04/01 03:28:10;;;;;;;;;;;;;;;;;;1269967;23;1347;-32
2022/04/01 03:28:40;;;;;;;;;;;;;;;;;;1270316;23;1255;-35
2022/04/01 03:29:12;;;;;;;;;;;;;;;;;;1270170;23;845;-35
2022/04/01 03:29:42;;;;;;;;;;;;;;;;;;1270208;23;1508;-33
2022/04/01 03:30:17;;;;;;;;;;;;;;;;;;1263864;23;1291;-36
2022/04/01 03:30:51;;;;;;;;;;;;;;;;;;1264078;23;1268;-35
2022/04/01 03:31:22;;;;;;;;;;;;;;;;;;1264045;23;1244;-33
2022/04/01 03:31:52;;;;;;;;;;;;;;;;;;1265194;23;1157;-32
2022/04/01 03:32:22;;;;;;;;;;;;;;;;;;1264023;23;1124;-33
2022/04/01 03:32:53;;;;;;;;;;;;;;;;;;1264264;23;1283;-31
2022/04/01 03:33:25;;;;;;;;;;;;;;;;;;1263720;23;1299;-30
2022/04/01 03:33:56;;;;;;;;;;;;;;;;;;1258799;23;1291;-31
2022/04/01 03:34:28;;;;;;;;;;;;;;;;;;1257056;23;2025;-32
2022/04/01 03:34:59;;;;;;;;;;;;;;;;;;1259000;23;1295;-31
2022/04/01 03:35:30;;;;;;;;;;;;;;;;;;1264592;23;1464;-30
2022/04/01 03:36:01;;;;;;;;;;;;;;;;;;1264525;23;1056;-30
2022/04/01 03:36:39;;;;;;;;;;;;;;;;;;1270030;23;1303;-30
2022/04/01 03:37:10;;;;;;;;;;;;;;;;;;1269932;23;766;-32
2022/04/01 03:37:41;;;;;;;;;;;;;;;;;;1265894;23;1116;-32
2022/04/01 03:38:11;;;;;;;;;;;;;;;;;;1270060;23;1218;-34
2022/04/01 03:38:46;;;;;;;;;;;;;;;;;;1270079;23;1541;-32
2022/04/01 03:39:26;;;;;;;;;;;;;;;;;;1272684;23;1263;-30
2022/04/01 03:40:00;;;;;;;;;;;;;;;;;;1272914;23;1140;-32
2022/04/01 03:40:31;;;;;;;;;;;;;;;;;;1266725;23;1129;-31
2022/04/01 03:41:05;;;;;;;;;;;;;;;;;;1270567;23;782;-32
2022/04/01 03:41:36;;;;;;;;;;;;;;;;;;1270024;23;1269;-35
2022/04/01 03:42:10;;;;;;;;;;;;;;;;;;1272308;23;1298;-30
2022/04/01 03:42:45;;;;;;;;;;;;;;;;;;1270478;23;1283;-31
2022/04/01 03:43:16;;;;;;;;;;;;;;;;;;1264617;23;1414;-34
2022/04/01 03:43:54;;;;;;;;;;;;;;;;;;1264686;23;1418;-29
2022/04/01 03:44:25;;;;;;;;;;;;;;;;;;1263890;23;1257;-33
2022/04/01 03:45:09;;;;;;;;;;;;;;;;;;1269119;23;1166;-32
2022/04/01 03:45:54;;;;;;;;;;;;;;;;;;1270664;23;2217;-32
2022/04/01 03:46:27;;;;;;;;;;;;;;;;;;1270607;23;814;-31
2022/04/01 03:47:02;;;;;;;;;;;;;;;;;;1270800;23;890;-33
2022/04/01 03:47:41;;;;;;;;;;;;;;;;;;1271815;23;1302;-31
2022/04/01 03:48:28;;;;;;;;;;;;;;;;;;1277076;23;789;-31
2022/04/01 03:49:07;;;;;;;;;;;;;;;;;;1270836;23;1273;-30
2022/04/01 03:49:48;;;;;;;;;;;;;;;;;;1270458;23;1147;-30
2022/04/01 03:50:27;;;;;;;;;;;;;;;;;;1270611;23;1195;-30
2022/04/01 03:50:58;;;;;;;;;;;;;;;;;;1276490;23;941;-29
2022/04/01 03:51:38;;;;;;;;;;;;;;;;;;1270099;23;1390;-31
2022/04/01 03:52:12;;;;;;;;;;;;;;;;;;1271013;23;838;-29
2022/04/01 03:52:45;;;;;;;;;;;;;;;;;;1270388;23;1439;-29
2022/04/01 03:53:17;;;;;;;;;;;;;;;;;;1266968;23;1131;-33
2022/04/01 03:53:57;;;;;;;;;;;;;;;;;;1270201;23;1276;-29
2022/04/01 03:54:43;;;;;;;;;;;;;;;;;;1264297;23;1107;-29
2022/04/01 03:55:35;;;;;;;;;;;;;;;;;;1270564;23;656;-27